createdAt,value
2019-04-06T00:01:18.434Z,8.70
2019-04-06T00:03:47.012Z,8.71
2019-04-06T00:06:15.658Z,8.61
2019-04-06T00:08:46.970Z,8.57
2019-04-06T00:11:15.565Z,8.59
2019-04-06T00:13:44.515Z,8.60
2019-04-06T00:16:13.185Z,8.67
2019-04-06T00:18:41.799Z,8.66
2019-04-06T00:21:10.378Z,8.60
2019-04-06T00:23:39.015Z,8.54
2019-04-06T00:26:07.728Z,8.47
2019-04-06T00:28:36.284Z,8.50
2019-04-06T00:31:09.246Z,8.45
2019-04-06T00:33:37.863Z,8.38
2019-04-06T00:36:06.432Z,8.29
2019-04-06T00:38:34.979Z,8.24
2019-04-06T00:41:03.558Z,8.23
2019-04-06T00:43:32.135Z,8.23
2019-04-06T00:46:00.747Z,8.28
2019-04-06T00:48:29.365Z,8.29
2019-04-06T00:50:58.406Z,8.29
2019-04-06T00:53:27.039Z,8.35
2019-04-06T00:55:56.367Z,8.34
2019-04-06T00:58:25.414Z,8.29
2019-04-06T01:00:54.136Z,8.27
2019-04-06T01:03:22.692Z,8.26
2019-04-06T01:05:51.378Z,8.27
2019-04-06T01:08:20.162Z,8.31
2019-04-06T01:10:48.746Z,8.42
2019-04-06T01:13:17.388Z,8.32
2019-04-06T01:15:46.155Z,8.18
2019-04-06T01:18:16.521Z,8.10
2019-04-06T01:20:45.138Z,8.04
2019-04-06T01:23:15.622Z,8.05
2019-04-06T01:25:46.358Z,8.01
2019-04-06T01:28:15.072Z,8.00
2019-04-06T01:30:45.529Z,7.94
2019-04-06T01:33:17.110Z,7.99
2019-04-06T01:35:45.832Z,7.97
2019-04-06T01:38:17.446Z,7.99
2019-04-06T01:40:49.079Z,7.99
2019-04-06T01:43:17.665Z,7.99
2019-04-06T01:45:46.788Z,7.94
2019-04-06T01:48:18.180Z,8.03
2019-04-06T01:50:49.774Z,8.01
2019-04-06T01:53:18.387Z,7.87
2019-04-06T01:55:46.968Z,7.76
2019-04-06T01:58:16.052Z,7.70
2019-04-06T02:00:46.511Z,7.68
2019-04-06T02:03:15.068Z,7.68
2019-04-06T02:05:45.715Z,7.58
2019-04-06T02:08:14.622Z,7.58
2019-04-06T02:10:43.228Z,7.70
2019-04-06T02:13:11.816Z,7.65
2019-04-06T02:15:41.293Z,7.56
2019-04-06T02:18:09.902Z,7.46
2019-04-06T02:20:38.469Z,7.44
2019-04-06T02:23:07.052Z,7.41
2019-04-06T02:25:35.658Z,7.34
2019-04-06T02:28:04.234Z,7.37
2019-04-06T02:30:37.608Z,7.43
2019-04-06T02:33:23.537Z,7.37
2019-04-06T02:35:56.145Z,7.27
2019-04-06T02:38:32.044Z,7.23
2019-04-06T02:41:14.917Z,7.33
2019-04-06T02:43:44.693Z,7.29
2019-04-06T02:46:13.383Z,7.27
2019-04-06T02:48:41.954Z,7.27
2019-04-06T02:51:10.506Z,7.23
2019-04-06T02:53:39.241Z,7.26
2019-04-06T02:56:07.798Z,7.16
2019-04-06T02:58:36.485Z,7.08
2019-04-06T03:01:05.263Z,7.03
2019-04-06T03:03:33.948Z,6.98
2019-04-06T03:06:02.776Z,6.97
2019-04-06T03:08:31.562Z,7.02
2019-04-06T03:11:00.272Z,6.95
2019-04-06T03:13:29.084Z,6.90
2019-04-06T03:15:57.744Z,6.83
2019-04-06T03:18:26.756Z,6.79
2019-04-06T03:20:55.312Z,6.93
2019-04-06T03:23:25.335Z,6.89
2019-04-06T03:25:54.433Z,6.96
2019-04-06T03:28:23.086Z,6.80
2019-04-06T03:30:51.638Z,6.75
2019-04-06T03:33:20.217Z,6.70
2019-04-06T03:35:50.391Z,6.70
2019-04-06T03:38:19.195Z,6.75
2019-04-06T03:40:47.758Z,6.89
2019-04-06T03:43:16.640Z,6.95
2019-04-06T03:45:47.695Z,7.03
2019-04-06T03:48:16.305Z,7.03
2019-04-06T03:50:46.655Z,7.02
2019-04-06T03:53:17.761Z,6.91
2019-04-06T03:55:46.343Z,6.85
2019-04-06T03:58:14.957Z,6.89
2019-04-06T04:00:45.489Z,6.86
2019-04-06T04:03:16.219Z,6.99
2019-04-06T04:05:46.683Z,7.15
2019-04-06T04:08:18.190Z,7.19
2019-04-06T04:10:49.743Z,7.22
2019-04-06T04:13:18.373Z,7.25
2019-04-06T04:15:46.947Z,7.25
2019-04-06T04:18:15.833Z,7.23
2019-04-06T04:20:47.140Z,7.19
2019-04-06T04:23:17.230Z,7.21
2019-04-06T04:25:47.767Z,7.20
2019-04-06T04:28:16.785Z,7.29
2019-04-06T04:30:48.145Z,7.33
2019-04-06T04:33:19.777Z,7.29
2019-04-06T04:35:48.469Z,7.31
2019-04-06T04:38:17.282Z,7.36
2019-04-06T04:40:47.651Z,7.40
2019-04-06T04:43:16.272Z,7.43
2019-04-06T04:45:46.589Z,7.47
2019-04-06T04:48:18.116Z,7.46
2019-04-06T04:50:49.993Z,7.42
2019-04-06T04:53:18.847Z,7.36
2019-04-06T04:55:47.426Z,7.36
2019-04-06T04:58:18.735Z,7.33
2019-04-06T05:00:47.335Z,7.43
2019-04-06T05:03:17.420Z,7.45
2019-04-06T05:05:48.971Z,7.54
2019-04-06T05:08:17.526Z,7.59
2019-04-06T05:10:49.627Z,7.77
2019-04-06T05:13:18.297Z,7.86
2019-04-06T05:16:09.849Z,7.96
2019-04-06T05:18:39.177Z,7.99
2019-04-06T05:21:07.929Z,8.03
2019-04-06T05:23:36.506Z,8.09
2019-04-06T05:26:06.110Z,8.22
2019-04-06T05:28:34.773Z,8.22
2019-04-06T05:31:03.457Z,8.26
2019-04-06T05:33:32.042Z,8.23
2019-04-06T05:36:00.776Z,8.18
2019-04-06T05:38:29.352Z,8.22
2019-04-06T05:40:58.048Z,8.24
2019-04-06T05:43:26.609Z,8.27
2019-04-06T05:45:55.278Z,8.30
2019-04-06T05:48:23.841Z,8.29
2019-04-06T05:50:52.864Z,8.44
2019-04-06T05:53:21.828Z,8.51
2019-04-06T05:55:50.549Z,8.59
2019-04-06T05:58:19.227Z,8.62
2019-04-06T06:00:47.832Z,8.74
2019-04-06T06:03:16.594Z,8.75
2019-04-06T06:05:45.428Z,8.80
2019-04-06T06:08:14.639Z,8.94
2019-04-06T06:10:43.243Z,9.13
2019-04-06T06:13:11.801Z,9.13
2019-04-06T06:15:40.887Z,9.17
2019-04-06T06:18:09.767Z,9.26
2019-04-06T06:20:38.344Z,9.46
2019-04-06T06:23:06.901Z,9.63
2019-04-06T06:25:35.537Z,9.68
2019-04-06T06:28:13.747Z,9.81
2019-04-06T06:30:34.694Z,9.91
2019-04-06T06:33:03.517Z,10.08
2019-04-06T06:35:32.350Z,10.13
2019-04-06T06:38:01.312Z,10.25
2019-04-06T06:40:29.901Z,10.32
2019-04-06T06:42:58.470Z,10.50
2019-04-06T06:45:27.390Z,10.67
2019-04-06T06:47:55.954Z,10.72
2019-04-06T06:50:24.515Z,10.86
2019-04-06T06:52:53.091Z,11.00
2019-04-06T06:55:21.726Z,11.11
2019-04-06T06:57:50.416Z,11.22
2019-04-06T07:00:19.206Z,11.41
2019-04-06T07:02:47.836Z,11.53
2019-04-06T07:05:16.459Z,11.60
2019-04-06T07:07:45.319Z,11.69
2019-04-06T07:10:17.554Z,11.82
2019-04-06T07:12:48.898Z,11.93
2019-04-06T07:15:17.545Z,11.86
2019-04-06T07:17:49.170Z,11.99
2019-04-06T07:20:18.343Z,12.07
2019-04-06T07:22:50.244Z,12.16
2019-04-06T07:25:19.049Z,12.28
2019-04-06T07:27:47.671Z,12.38
2019-04-06T07:30:16.749Z,12.44
2019-04-06T07:32:48.311Z,12.49
2019-04-06T07:35:17.444Z,12.70
2019-04-06T07:37:48.831Z,12.83
2019-04-06T07:40:17.840Z,12.88
2019-04-06T07:42:48.281Z,13.00
2019-04-06T07:45:17.210Z,13.09
2019-04-06T07:47:47.368Z,13.30
2019-04-06T07:50:19.211Z,13.46
2019-04-06T07:52:47.796Z,13.55
2019-04-06T07:55:16.424Z,13.75
2019-04-06T07:57:45.156Z,13.89
2019-04-06T08:00:13.803Z,13.96
2019-04-06T08:02:42.390Z,14.07
2019-04-06T08:05:11.208Z,14.16
2019-04-06T08:07:39.897Z,14.28
2019-04-06T08:10:09.253Z,14.44
2019-04-06T08:12:38.490Z,14.56
2019-04-06T08:15:09.236Z,14.60
2019-04-06T08:17:37.809Z,14.73
2019-04-06T08:20:09.250Z,14.83
2019-04-06T08:22:37.905Z,14.93
2019-04-06T08:25:07.213Z,15.07
2019-04-06T08:27:35.786Z,15.15
2019-04-06T08:30:09.022Z,15.17
2019-04-06T08:33:00.138Z,15.35
2019-04-06T08:35:28.701Z,15.44
2019-04-06T08:37:57.429Z,15.48
2019-04-06T08:40:25.982Z,15.63
2019-04-06T08:42:54.571Z,15.85
2019-04-06T08:45:23.452Z,15.93
2019-04-06T08:47:52.312Z,15.99
2019-04-06T08:50:20.867Z,16.06
2019-04-06T08:52:49.969Z,16.20
2019-04-06T08:55:18.554Z,16.31
2019-04-06T08:57:47.499Z,16.54
2019-04-06T09:00:19.046Z,16.53
2019-04-06T09:02:47.655Z,16.57
2019-04-06T09:05:16.379Z,16.86
2019-04-06T09:07:44.991Z,16.90
2019-04-06T09:10:13.958Z,17.17
2019-04-06T09:12:42.796Z,17.21
2019-04-06T09:15:11.724Z,17.38
2019-04-06T09:17:40.458Z,17.43
2019-04-06T09:20:09.874Z,17.47
2019-04-06T09:22:38.460Z,17.56
2019-04-06T09:25:07.843Z,17.61
2019-04-06T09:27:36.790Z,17.85
2019-04-06T09:30:06.696Z,17.82
2019-04-06T09:32:35.284Z,17.98
2019-04-06T09:35:08.406Z,18.06
2019-04-06T09:37:43.153Z,18.11
2019-04-06T09:40:13.514Z,18.27
2019-04-06T09:42:42.309Z,18.43
2019-04-06T09:45:21.738Z,18.37
2019-04-06T09:47:58.044Z,18.59
2019-04-06T09:50:31.213Z,18.72
2019-04-06T09:53:17.726Z,18.73
2019-04-06T09:55:47.886Z,18.86
2019-04-06T09:58:22.428Z,18.86
2019-04-06T10:01:04.718Z,19.11
2019-04-06T10:03:41.343Z,19.19
2019-04-06T10:06:27.951Z,19.16
2019-04-06T10:09:17.318Z,19.29
2019-04-06T10:11:49.244Z,19.48
2019-04-06T10:14:19.425Z,19.58
2019-04-06T10:16:49.658Z,19.51
2019-04-06T10:19:22.678Z,19.61
2019-04-06T10:21:52.927Z,19.64
2019-04-06T10:24:25.942Z,19.72
2019-04-06T10:26:58.647Z,19.75
2019-04-06T10:29:31.966Z,19.86
2019-04-06T10:32:05.084Z,19.99
2019-04-06T10:34:35.626Z,19.97
2019-04-06T10:37:22.442Z,19.89
2019-04-06T10:39:52.788Z,20.18
2019-04-06T10:42:32.002Z,20.36
2019-04-06T10:45:05.337Z,20.54
2019-04-06T10:47:41.410Z,20.52
2019-04-06T10:50:11.700Z,20.44
2019-04-06T10:52:54.097Z,20.33
2019-04-06T10:55:24.316Z,20.51
2019-04-06T10:58:03.573Z,20.37
2019-04-06T11:00:36.416Z,20.47
2019-04-06T11:03:15.245Z,20.41
2019-04-06T11:05:45.728Z,20.46
2019-04-06T11:08:27.993Z,20.51
2019-04-06T11:11:19.950Z,20.81
2019-04-06T11:14:00.238Z,20.97
2019-04-06T11:16:36.130Z,21.16
2019-04-06T11:19:22.881Z,21.28
2019-04-06T11:21:58.792Z,21.29
2019-04-06T11:24:43.805Z,21.16
2019-04-06T11:27:20.507Z,21.31
2019-04-06T11:29:53.698Z,21.29
2019-04-06T11:32:40.039Z,21.40
2019-04-06T11:35:13.201Z,21.35
2019-04-06T11:37:46.876Z,21.48
2019-04-06T11:40:29.539Z,21.67
2019-04-06T11:43:05.617Z,21.66
2019-04-06T11:45:35.806Z,21.75
2019-04-06T11:48:12.230Z,21.56
2019-04-06T11:50:54.129Z,21.53
2019-04-06T11:53:36.379Z,21.37
2019-04-06T11:56:06.663Z,21.45
2019-04-06T11:58:40.017Z,21.35
2019-04-06T12:01:19.330Z,21.52
2019-04-06T12:03:55.698Z,21.73
2019-04-06T12:06:31.842Z,21.77
2019-04-06T12:09:10.500Z,21.82
2019-04-06T12:11:45.572Z,21.75
2019-04-06T12:14:18.461Z,21.86
2019-04-06T12:16:49.070Z,22.05
2019-04-06T12:19:25.107Z,22.15
2019-04-06T12:22:12.044Z,22.18
2019-04-06T12:24:54.037Z,22.16
2019-04-06T12:27:40.675Z,22.32
2019-04-06T12:30:16.308Z,22.21
2019-04-06T12:33:02.759Z,22.26
2019-04-06T12:35:35.655Z,22.16
2019-04-06T12:38:08.571Z,22.20
2019-04-06T12:40:55.007Z,22.26
2019-04-06T12:43:25.232Z,22.22
2019-04-06T12:46:11.491Z,22.10
2019-04-06T12:48:46.438Z,21.83
2019-04-06T12:51:31.802Z,21.82
2019-04-06T12:54:18.891Z,21.99
2019-04-06T12:56:49.520Z,22.19
2019-04-06T12:59:20.201Z,22.19
2019-04-06T13:02:05.183Z,22.07
2019-04-06T13:04:38.324Z,21.95
2019-04-06T13:07:08.519Z,21.77
2019-04-06T13:09:41.504Z,21.74
2019-04-06T13:12:12.635Z,21.70
2019-04-06T13:14:48.793Z,21.71
2019-04-06T13:17:25.737Z,21.74
2019-04-06T13:19:59.114Z,21.89
2019-04-06T13:22:34.815Z,21.81
2019-04-06T13:25:17.663Z,21.82
2019-04-06T13:27:49.398Z,21.74
2019-04-06T13:30:28.742Z,21.80
2019-04-06T13:33:15.127Z,21.74
2019-04-06T13:35:45.377Z,21.83
2019-04-06T13:38:15.582Z,21.77
2019-04-06T13:40:48.206Z,21.84
2019-04-06T13:43:24.244Z,21.70
2019-04-06T13:46:06.417Z,21.75
2019-04-06T13:48:36.651Z,21.87
2019-04-06T13:51:15.352Z,22.07
2019-04-06T13:53:45.942Z,22.10
2019-04-06T13:56:16.515Z,22.25
2019-04-06T13:59:01.761Z,22.17
2019-04-06T14:01:35.115Z,22.22
2019-04-06T14:04:08.026Z,22.19
2019-04-06T14:06:45.811Z,22.03
2019-04-06T14:09:21.985Z,21.99
2019-04-06T14:11:55.203Z,22.20
2019-04-06T14:14:40.399Z,22.27
2019-04-06T14:17:10.642Z,22.33
2019-04-06T14:19:43.331Z,22.35
2019-04-06T14:22:15.211Z,22.26
2019-04-06T14:24:54.122Z,22.17
2019-04-06T14:27:42.435Z,22.38
2019-04-06T14:30:12.771Z,22.37
2019-04-06T14:32:45.716Z,22.48
2019-04-06T14:35:16.038Z,22.52
2019-04-06T14:37:52.460Z,22.63
2019-04-06T14:40:38.946Z,22.60
2019-04-06T14:43:15.424Z,22.42
2019-04-06T14:45:48.701Z,22.34
2019-04-06T14:48:19.067Z,22.38
2019-04-06T14:50:50.782Z,22.41
2019-04-06T14:53:37.171Z,22.41
2019-04-06T14:56:07.951Z,22.19
2019-04-06T14:58:38.154Z,22.30
2019-04-06T15:01:08.463Z,22.21
2019-04-06T15:03:38.704Z,22.32
2019-04-06T15:06:08.903Z,22.25
2019-04-06T15:08:41.980Z,22.37
2019-04-06T15:11:18.355Z,22.40
2019-04-06T15:13:51.411Z,22.73
2019-04-06T15:16:30.879Z,22.95
2019-04-06T15:19:07.074Z,23.11
2019-04-06T15:21:43.933Z,23.14
2019-04-06T15:24:15.422Z,23.37
2019-04-06T15:26:45.682Z,23.47
2019-04-06T15:29:30.764Z,23.96
2019-04-06T15:32:04.078Z,23.89
2019-04-06T15:34:50.895Z,23.82
2019-04-06T15:37:21.440Z,23.64
2019-04-06T15:39:57.360Z,23.61
2019-04-06T15:42:46.155Z,23.83
2019-04-06T15:45:34.730Z,23.47
2019-04-06T15:48:05.363Z,23.24
2019-04-06T15:50:41.438Z,23.22
2019-04-06T15:53:20.713Z,22.87
2019-04-06T15:55:51.054Z,22.77
2019-04-06T15:58:21.632Z,23.00
2019-04-06T16:01:08.167Z,22.97
2019-04-06T16:03:41.192Z,22.77
2019-04-06T16:06:11.433Z,22.71
2019-04-06T16:08:41.659Z,22.31
2019-04-06T16:11:12.148Z,21.78
2019-04-06T16:13:42.485Z,21.69
2019-04-06T16:16:22.052Z,21.47
2019-04-06T16:19:04.390Z,21.06
2019-04-06T16:21:40.480Z,20.73
2019-04-06T16:24:15.638Z,20.38
2019-04-06T16:26:51.423Z,20.14
2019-04-06T16:29:21.639Z,19.99
2019-04-06T16:31:52.263Z,19.71
2019-04-06T16:34:22.501Z,19.65
2019-04-06T16:36:52.865Z,19.44
2019-04-06T16:39:26.579Z,19.34
2019-04-06T16:41:56.969Z,19.27
2019-04-06T16:44:30.375Z,19.16
2019-04-06T16:47:16.926Z,19.02
2019-04-06T16:49:50.039Z,18.95
2019-04-06T16:52:23.157Z,18.81
2019-04-06T16:54:53.402Z,18.63
2019-04-06T16:57:23.891Z,18.55
2019-04-06T16:59:56.908Z,18.44
2019-04-06T17:02:36.241Z,18.30
2019-04-06T17:05:07.433Z,18.08
2019-04-06T17:07:46.512Z,17.96
2019-04-06T17:10:17.026Z,17.87
2019-04-06T17:12:47.720Z,17.71
2019-04-06T17:15:30.651Z,17.61
2019-04-06T17:18:17.393Z,17.58
2019-04-06T17:20:56.054Z,17.37
2019-04-06T17:23:31.937Z,17.27
2019-04-06T17:26:02.186Z,17.13
2019-04-06T17:28:47.405Z,17.01
2019-04-06T17:31:29.881Z,16.93
2019-04-06T17:34:06.160Z,16.86
2019-04-06T17:36:54.986Z,16.74
2019-04-06T17:39:28.177Z,16.64
2019-04-06T17:42:10.931Z,16.49
2019-04-06T17:44:41.589Z,16.26
2019-04-06T17:47:18.062Z,16.11
2019-04-06T17:49:51.605Z,15.96
2019-04-06T17:52:25.163Z,15.76
2019-04-06T17:54:55.848Z,15.67
2019-04-06T17:57:42.064Z,15.56
2019-04-06T18:00:19.809Z,15.48
2019-04-06T18:02:51.018Z,15.39
2019-04-06T18:05:36.364Z,15.33
2019-04-06T18:08:13.124Z,15.20
2019-04-06T18:10:55.193Z,15.16
2019-04-06T18:13:45.459Z,15.06
2019-04-06T18:16:14.343Z,14.97
2019-04-06T18:18:42.995Z,14.87
2019-04-06T18:21:11.660Z,14.78
2019-04-06T18:23:40.362Z,14.68
2019-04-06T18:26:09.491Z,14.58
2019-04-06T18:28:38.102Z,14.60
2019-04-06T18:31:08.557Z,14.64
2019-04-06T18:33:37.270Z,14.56
2019-04-06T18:36:06.049Z,14.43
2019-04-06T18:38:43.274Z,14.39
2019-04-06T18:41:12.023Z,14.24
2019-04-06T18:43:40.753Z,14.26
2019-04-06T18:46:09.360Z,14.20
2019-04-06T18:48:38.298Z,14.21
2019-04-06T18:51:07.648Z,14.32
2019-04-06T18:53:37.043Z,14.17
2019-04-06T18:56:05.888Z,14.09
2019-04-06T18:58:34.453Z,14.06
2019-04-06T19:01:03.719Z,13.91
2019-04-06T19:03:32.668Z,13.91
2019-04-06T19:06:01.359Z,13.81
2019-04-06T19:08:30.020Z,13.78
2019-04-06T19:10:58.948Z,13.75
2019-04-06T19:13:27.691Z,13.67
2019-04-06T19:15:56.789Z,13.64
2019-04-06T19:18:25.492Z,13.54
2019-04-06T19:20:54.203Z,13.51
2019-04-06T19:23:22.967Z,13.43
2019-04-06T19:25:51.639Z,13.42
2019-04-06T19:28:20.966Z,13.36
2019-04-06T19:30:49.928Z,13.32
2019-04-06T19:33:25.007Z,13.30
2019-04-06T19:35:49.433Z,13.24
2019-04-06T19:38:18.174Z,13.17
2019-04-06T19:40:50.398Z,13.06
2019-04-06T19:43:19.095Z,13.08
2019-04-06T19:45:47.690Z,12.99
2019-04-06T19:48:16.299Z,13.05
2019-04-06T19:50:45.013Z,12.95
2019-04-06T19:53:15.710Z,12.85
2019-04-06T19:55:44.612Z,12.82
2019-04-06T19:58:13.708Z,12.80
2019-04-06T20:00:42.636Z,12.72
2019-04-06T20:03:11.164Z,12.69
2019-04-06T20:05:40.201Z,12.66
2019-04-06T20:08:09.712Z,12.77
2019-04-06T20:10:38.640Z,12.67
2019-04-06T20:13:07.565Z,12.59
2019-04-06T20:15:36.393Z,12.53
2019-04-06T20:18:05.494Z,12.48
2019-04-06T20:20:34.287Z,12.38
2019-04-06T20:23:02.947Z,12.36
2019-04-06T20:25:31.943Z,12.25
2019-04-06T20:28:00.486Z,12.28
2019-04-06T20:30:29.051Z,12.24
2019-04-06T20:32:58.133Z,12.18
2019-04-06T20:35:27.148Z,12.06
2019-04-06T20:37:55.869Z,12.06
2019-04-06T20:40:24.562Z,12.00
2019-04-06T20:42:53.202Z,11.93
2019-04-06T20:45:21.805Z,12.06
2019-04-06T20:47:50.699Z,11.95
2019-04-06T20:50:19.346Z,11.90
2019-04-06T20:52:48.375Z,11.91
2019-04-06T20:55:16.995Z,11.85
2019-04-06T20:57:46.217Z,11.81
2019-04-06T21:00:16.952Z,11.77
2019-04-06T21:02:45.602Z,11.71
2019-04-06T21:05:16.724Z,11.71
2019-04-06T21:07:48.499Z,11.77
2019-04-06T21:10:17.203Z,11.64
2019-04-06T21:12:47.620Z,11.63
2019-04-06T21:15:20.545Z,11.59
2019-04-06T21:17:48.536Z,11.50
2019-04-06T21:20:18.299Z,11.48
2019-04-06T21:22:47.042Z,11.42
2019-04-06T21:25:15.738Z,11.36
2019-04-06T21:27:47.823Z,11.54
2019-04-06T21:30:16.930Z,11.43
2019-04-06T21:32:45.873Z,11.40
2019-04-06T21:35:16.337Z,11.30
2019-04-06T21:37:45.925Z,11.25
2019-04-06T21:40:16.988Z,11.18
2019-04-06T21:43:06.885Z,11.12
2019-04-06T21:45:35.545Z,11.07
2019-04-06T21:48:04.863Z,11.08
2019-04-06T21:50:33.481Z,10.98
2019-04-06T21:53:02.529Z,10.92
2019-04-06T21:55:31.278Z,10.90
2019-04-06T21:57:59.895Z,10.85
2019-04-06T22:00:33.308Z,10.86
2019-04-06T22:03:02.885Z,10.80
2019-04-06T22:05:32.017Z,10.73
2019-04-06T22:08:00.746Z,10.70
2019-04-06T22:10:29.821Z,10.71
2019-04-06T22:12:58.936Z,10.68
2019-04-06T22:15:28.266Z,10.69
2019-04-06T22:17:56.869Z,10.63
2019-04-06T22:20:25.501Z,10.61
2019-04-06T22:22:54.122Z,10.49
2019-04-06T22:25:22.740Z,10.53
2019-04-06T22:27:51.350Z,10.47
2019-04-06T22:30:20.067Z,10.43
2019-04-06T22:32:49.625Z,10.43
2019-04-06T22:35:18.443Z,10.43
2019-04-06T22:37:47.459Z,10.40
2019-04-06T22:40:19.685Z,10.35
2019-04-06T22:42:48.390Z,10.31
2019-04-06T22:45:21.712Z,10.32
2019-04-06T22:47:50.833Z,10.24
2019-04-06T22:50:19.983Z,10.15
2019-04-06T22:52:49.217Z,10.20
2019-04-06T22:55:17.808Z,10.10
2019-04-06T22:57:46.618Z,10.07
2019-04-06T23:00:20.279Z,10.00
2019-04-06T23:02:57.131Z,10.01
2019-04-06T23:05:30.202Z,9.94
2019-04-06T23:07:59.844Z,9.90
2019-04-06T23:10:28.556Z,9.84
2019-04-06T23:12:57.437Z,9.72
2019-04-06T23:15:26.620Z,9.64
2019-04-06T23:17:55.503Z,9.63
2019-04-06T23:20:24.375Z,9.59
2019-04-06T23:22:52.965Z,9.58
2019-04-06T23:25:21.642Z,9.52
2019-04-06T23:27:50.357Z,9.57
2019-04-06T23:30:19.390Z,9.47
2019-04-06T23:32:47.971Z,9.41
2019-04-06T23:35:18.567Z,9.32
2019-04-06T23:37:47.267Z,9.25
2019-04-06T23:40:16.620Z,9.22
2019-04-06T23:42:48.141Z,9.27
2019-04-06T23:45:19.649Z,9.26
2019-04-06T23:47:48.425Z,9.21
2019-04-06T23:50:17.056Z,9.22
2019-04-06T23:52:46.659Z,9.17
2019-04-06T23:55:18.110Z,9.11
2019-04-06T23:57:50.052Z,9.18
